sensor_id;sensor_type;location;lat;lon;timestamp;pressure;altitude;pressure_sealevel;temperature;humidity
68179;BME280;54998;42.656;23.382;2023-03-01T00:01:10;95381.56;;;4.12;83.92
68179;BME280;54998;42.656;23.382;2023-03-01T00:03:36;95382.06;;;4.03;84.31
68179;BME280;54998;42.656;23.382;2023-03-01T00:06:02;95378.06;;;3.99;84.27
68179;BME280;54998;42.656;23.382;2023-03-01T00:08:28;95384.84;;;3.98;84.16
68179;BME280;54998;42.656;23.382;2023-03-01T00:13:27;95377.16;;;4.00;84.53
68179;BME280;54998;42.656;23.382;2023-03-01T00:15:52;95371.63;;;3.93;84.46
68179;BME280;54998;42.656;23.382;2023-03-01T00:18:17;95371.34;;;3.98;84.87
68179;BME280;54998;42.656;23.382;2023-03-01T00:20:50;95367.63;;;4.03;84.23
68179;BME280;54998;42.656;23.382;2023-03-01T00:23:15;95365.00;;;4.05;84.59
68179;BME280;54998;42.656;23.382;2023-03-01T00:25:42;95355.94;;;4.01;84.65
68179;BME280;54998;42.656;23.382;2023-03-01T00:28:07;95351.03;;;3.98;84.23
68179;BME280;54998;42.656;23.382;2023-03-01T00:30:32;95346.94;;;3.95;84.50
68179;BME280;54998;42.656;23.382;2023-03-01T00:32:58;95349.75;;;3.90;84.11
68179;BME280;54998;42.656;23.382;2023-03-01T00:35:23;95342.38;;;3.86;84.59
68179;BME280;54998;42.656;23.382;2023-03-01T00:37:48;95338.56;;;3.79;84.58
68179;BME280;54998;42.656;23.382;2023-03-01T00:40:22;95334.56;;;3.75;84.86
68179;BME280;54998;42.656;23.382;2023-03-01T00:42:48;95345.53;;;3.75;85.42
68179;BME280;54998;42.656;23.382;2023-03-01T00:45:13;95328.59;;;3.76;85.14
68179;BME280;54998;42.656;23.382;2023-03-01T00:47:38;95348.78;;;3.77;84.94
68179;BME280;54998;42.656;23.382;2023-03-01T00:50:04;95348.63;;;3.80;84.65
68179;BME280;54998;42.656;23.382;2023-03-01T00:52:29;95334.28;;;3.79;84.93
68179;BME280;54998;42.656;23.382;2023-03-01T00:54:55;95328.41;;;3.79;84.93
68179;BME280;54998;42.656;23.382;2023-03-01T00:57:20;95336.09;;;3.77;85.11
68179;BME280;54998;42.656;23.382;2023-03-01T00:59:46;95328.88;;;3.85;84.70
68179;BME280;54998;42.656;23.382;2023-03-01T01:02:11;95330.13;;;3.78;84.99
68179;BME280;54998;42.656;23.382;2023-03-01T01:07:05;95327.66;;;3.77;84.51
68179;BME280;54998;42.656;23.382;2023-03-01T01:09:30;95334.94;;;3.83;84.80
68179;BME280;54998;42.656;23.382;2023-03-01T01:11:56;95340.44;;;3.75;84.37
68179;BME280;54998;42.656;23.382;2023-03-01T01:14:21;95329.31;;;3.78;84.62
68179;BME280;54998;42.656;23.382;2023-03-01T01:16:47;95324.31;;;3.76;84.57
68179;BME280;54998;42.656;23.382;2023-03-01T01:19:13;95339.56;;;3.76;84.33
68179;BME280;54998;42.656;23.382;2023-03-01T01:21:39;95330.94;;;3.79;84.19
68179;BME280;54998;42.656;23.382;2023-03-01T01:24:05;95330.28;;;3.75;84.26
68179;BME280;54998;42.656;23.382;2023-03-01T01:26:32;95327.53;;;3.80;83.86
68179;BME280;54998;42.656;23.382;2023-03-01T01:28:59;95332.41;;;3.83;83.57
68179;BME280;54998;42.656;23.382;2023-03-01T01:31:26;95343.38;;;3.83;83.41
68179;BME280;54998;42.656;23.382;2023-03-01T01:33:54;95341.84;;;3.81;83.03
68179;BME280;54998;42.656;23.382;2023-03-01T01:36:20;95337.09;;;3.75;83.15
68179;BME280;54998;42.656;23.382;2023-03-01T01:38:46;95343.38;;;3.83;83.11
68179;BME280;54998;42.656;23.382;2023-03-01T01:41:12;95349.53;;;3.79;83.08
68179;BME280;54998;42.656;23.382;2023-03-01T01:43:43;95355.44;;;3.80;82.80
68179;BME280;54998;42.656;23.382;2023-03-01T01:46:25;95354.38;;;3.84;82.92
68179;BME280;54998;42.656;23.382;2023-03-01T01:49:32;95343.94;;;3.88;82.23
68179;BME280;54998;42.656;23.382;2023-03-01T01:54:39;95348.91;;;3.90;81.82
68179;BME280;54998;42.656;23.382;2023-03-01T01:57:10;95338.94;;;3.87;81.97
68179;BME280;54998;42.656;23.382;2023-03-01T01:59:37;95344.56;;;3.78;81.94
68179;BME280;54998;42.656;23.382;2023-03-01T02:02:04;95337.31;;;3.86;81.66
68179;BME280;54998;42.656;23.382;2023-03-01T02:04:31;95333.22;;;3.83;81.76
68179;BME280;54998;42.656;23.382;2023-03-01T02:07:15;95324.72;;;3.84;81.05
68179;BME280;54998;42.656;23.382;2023-03-01T02:09:49;95320.78;;;3.79;81.44
68179;BME280;54998;42.656;23.382;2023-03-01T02:12:18;95324.88;;;3.81;81.20
68179;BME280;54998;42.656;23.382;2023-03-01T02:14:45;95304.28;;;3.72;80.86
68179;BME280;54998;42.656;23.382;2023-03-01T02:17:12;95316.19;;;3.85;80.57
68179;BME280;54998;42.656;23.382;2023-03-01T02:22:28;95324.78;;;3.83;80.66
68179;BME280;54998;42.656;23.382;2023-03-01T02:27:21;95326.97;;;3.89;80.92
68179;BME280;54998;42.656;23.382;2023-03-01T02:29:50;95324.13;;;3.79;80.79
68179;BME280;54998;42.656;23.382;2023-03-01T02:32:16;95321.06;;;3.74;81.42
68179;BME280;54998;42.656;23.382;2023-03-01T02:34:51;95311.81;;;3.73;81.52
68179;BME280;54998;42.656;23.382;2023-03-01T02:37:18;95329.31;;;3.78;82.07
68179;BME280;54998;42.656;23.382;2023-03-01T02:39:55;95327.94;;;3.72;81.97
68179;BME280;54998;42.656;23.382;2023-03-01T02:44:58;95337.19;;;3.73;82.00
68179;BME280;54998;42.656;23.382;2023-03-01T02:47:23;95327.22;;;3.70;81.91
68179;BME280;54998;42.656;23.382;2023-03-01T02:49:49;95318.69;;;3.71;82.18
68179;BME280;54998;42.656;23.382;2023-03-01T02:55:12;95320.50;;;3.69;82.30
68179;BME280;54998;42.656;23.382;2023-03-01T02:57:43;95325.66;;;3.67;82.50
68179;BME280;54998;42.656;23.382;2023-03-01T03:00:12;95325.41;;;3.72;82.55
68179;BME280;54998;42.656;23.382;2023-03-01T03:02:46;95329.00;;;3.54;82.78
68179;BME280;54998;42.656;23.382;2023-03-01T03:05:19;95331.25;;;3.58;83.00
68179;BME280;54998;42.656;23.382;2023-03-01T03:07:46;95327.88;;;3.58;82.76
68179;BME280;54998;42.656;23.382;2023-03-01T03:10:21;95321.44;;;3.52;83.14
68179;BME280;54998;42.656;23.382;2023-03-01T03:13:11;95331.69;;;3.50;83.58
68179;BME280;54998;42.656;23.382;2023-03-01T03:15:38;95329.31;;;3.47;83.50
68179;BME280;54998;42.656;23.382;2023-03-01T03:18:10;95339.16;;;3.38;83.69
68179;BME280;54998;42.656;23.382;2023-03-01T03:20:36;95337.53;;;3.37;83.87
68179;BME280;54998;42.656;23.382;2023-03-01T03:23:03;95330.66;;;3.39;83.91
68179;BME280;54998;42.656;23.382;2023-03-01T03:25:29;95330.06;;;3.34;83.78
68179;BME280;54998;42.656;23.382;2023-03-01T03:27:55;95336.47;;;3.41;83.55
68179;BME280;54998;42.656;23.382;2023-03-01T03:30:29;95327.47;;;3.35;83.34
68179;BME280;54998;42.656;23.382;2023-03-01T03:32:57;95343.59;;;3.34;83.52
68179;BME280;54998;42.656;23.382;2023-03-01T03:35:28;95344.34;;;3.36;83.13
68179;BME280;54998;42.656;23.382;2023-03-01T03:38:00;95344.22;;;3.38;83.33
68179;BME280;54998;42.656;23.382;2023-03-01T03:40:37;95340.88;;;3.37;83.68
68179;BME280;54998;42.656;23.382;2023-03-01T03:45:49;95334.56;;;3.44;83.17
68179;BME280;54998;42.656;23.382;2023-03-01T03:48:16;95337.94;;;3.45;83.53
68179;BME280;54998;42.656;23.382;2023-03-01T03:50:47;95341.34;;;3.44;83.41
68179;BME280;54998;42.656;23.382;2023-03-01T03:53:13;95338.81;;;3.44;83.31
68179;BME280;54998;42.656;23.382;2023-03-01T03:55:39;95339.25;;;3.36;83.31
68179;BME280;54998;42.656;23.382;2023-03-01T03:58:06;95344.34;;;3.36;84.04
68179;BME280;54998;42.656;23.382;2023-03-01T04:00:36;95340.69;;;3.40;83.52
68179;BME280;54998;42.656;23.382;2023-03-01T04:03:02;95337.41;;;3.38;83.53
68179;BME280;54998;42.656;23.382;2023-03-01T04:05:27;95339.84;;;3.25;83.86
68179;BME280;54998;42.656;23.382;2023-03-01T04:07:53;95340.31;;;3.32;83.55
68179;BME280;54998;42.656;23.382;2023-03-01T04:10:27;95350.38;;;3.34;83.37
68179;BME280;54998;42.656;23.382;2023-03-01T04:12:55;95346.28;;;3.31;83.51
68179;BME280;54998;42.656;23.382;2023-03-01T04:15:21;95347.50;;;3.40;83.32
68179;BME280;54998;42.656;23.382;2023-03-01T04:17:50;95341.34;;;3.44;82.94
68179;BME280;54998;42.656;23.382;2023-03-01T04:20:22;95344.88;;;3.41;82.90
68179;BME280;54998;42.656;23.382;2023-03-01T04:23:11;95349.16;;;3.41;82.97
68179;BME280;54998;42.656;23.382;2023-03-01T04:28:22;95342.00;;;3.47;83.27
68179;BME280;54998;42.656;23.382;2023-03-01T04:30:50;95346.91;;;3.50;83.02
68179;BME280;54998;42.656;23.382;2023-03-01T04:33:15;95346.09;;;3.50;83.04
68179;BME280;54998;42.656;23.382;2023-03-01T04:35:41;95346.25;;;3.47;82.92
68179;BME280;54998;42.656;23.382;2023-03-01T04:38:07;95351.22;;;3.34;83.37
68179;BME280;54998;42.656;23.382;2023-03-01T04:40:33;95339.88;;;3.40;82.86
68179;BME280;54998;42.656;23.382;2023-03-01T04:42:58;95341.53;;;3.41;82.42
68179;BME280;54998;42.656;23.382;2023-03-01T04:45:24;95333.00;;;3.42;82.36
68179;BME280;54998;42.656;23.382;2023-03-01T04:47:49;95337.09;;;3.44;83.02
68179;BME280;54998;42.656;23.382;2023-03-01T04:50:17;95342.16;;;3.44;82.96
68179;BME280;54998;42.656;23.382;2023-03-01T04:52:46;95341.59;;;3.39;83.65
68179;BME280;54998;42.656;23.382;2023-03-01T04:55:12;95334.25;;;3.35;83.69
68179;BME280;54998;42.656;23.382;2023-03-01T04:57:38;95331.06;;;3.31;83.92
68179;BME280;54998;42.656;23.382;2023-03-01T05:00:05;95340.66;;;3.26;84.04
68179;BME280;54998;42.656;23.382;2023-03-01T05:02:49;95340.00;;;3.22;84.20
68179;BME280;54998;42.656;23.382;2023-03-01T05:05:29;95336.72;;;3.20;84.68
68179;BME280;54998;42.656;23.382;2023-03-01T05:07:58;95346.78;;;3.22;85.05
68179;BME280;54998;42.656;23.382;2023-03-01T05:10:26;95351.63;;;3.11;84.96
68179;BME280;54998;42.656;23.382;2023-03-01T05:12:52;95342.38;;;3.09;85.35
68179;BME280;54998;42.656;23.382;2023-03-01T05:15:18;95342.38;;;3.09;85.62
68179;BME280;54998;42.656;23.382;2023-03-01T05:17:44;95341.38;;;3.12;85.08
68179;BME280;54998;42.656;23.382;2023-03-01T05:20:10;95340.06;;;3.21;85.36
68179;BME280;54998;42.656;23.382;2023-03-01T05:22:36;95341.66;;;3.23;84.88
68179;BME280;54998;42.656;23.382;2023-03-01T05:25:02;95347.09;;;3.32;84.24
68179;BME280;54998;42.656;23.382;2023-03-01T05:27:28;95340.31;;;3.32;83.65
68179;BME280;54998;42.656;23.382;2023-03-01T05:29:55;95336.38;;;3.26;84.18
68179;BME280;54998;42.656;23.382;2023-03-01T05:32:20;95343.81;;;3.29;83.96
68179;BME280;54998;42.656;23.382;2023-03-01T05:34:46;95344.34;;;3.36;83.83
68179;BME280;54998;42.656;23.382;2023-03-01T05:37:12;95345.63;;;3.43;82.97
68179;BME280;54998;42.656;23.382;2023-03-01T05:39:38;95341.53;;;3.41;83.31
68179;BME280;54998;42.656;23.382;2023-03-01T05:42:04;95349.78;;;3.44;83.42
68179;BME280;54998;42.656;23.382;2023-03-01T05:44:29;95351.75;;;3.39;82.74
68179;BME280;54998;42.656;23.382;2023-03-01T05:46:55;95350.94;;;3.39;83.00
68179;BME280;54998;42.656;23.382;2023-03-01T05:49:21;95341.22;;;3.31;83.35
68179;BME280;54998;42.656;23.382;2023-03-01T05:51:52;95354.69;;;3.47;83.01
68179;BME280;54998;42.656;23.382;2023-03-01T05:54:18;95355.69;;;3.45;82.50
68179;BME280;54998;42.656;23.382;2023-03-01T05:56:44;95355.63;;;3.31;82.72
68179;BME280;54998;42.656;23.382;2023-03-01T05:59:10;95361.50;;;3.31;83.02
68179;BME280;54998;42.656;23.382;2023-03-01T06:01:36;95372.25;;;3.36;83.49
68179;BME280;54998;42.656;23.382;2023-03-01T06:04:03;95365.69;;;3.32;83.29
68179;BME280;54998;42.656;23.382;2023-03-01T06:06:29;95369.84;;;3.33;83.67
68179;BME280;54998;42.656;23.382;2023-03-01T06:08:55;95370.84;;;3.31;83.42
68179;BME280;54998;42.656;23.382;2023-03-01T06:11:21;95379.13;;;3.34;83.91
68179;BME280;54998;42.656;23.382;2023-03-01T06:13:47;95383.19;;;3.37;84.00
68179;BME280;54998;42.656;23.382;2023-03-01T06:16:13;95390.31;;;3.30;84.13
68179;BME280;54998;42.656;23.382;2023-03-01T06:18:39;95379.59;;;3.25;84.50
68179;BME280;54998;42.656;23.382;2023-03-01T06:21:06;95386.47;;;3.23;84.73
68179;BME280;54998;42.656;23.382;2023-03-01T06:23:32;95379.84;;;3.20;84.82
68179;BME280;54998;42.656;23.382;2023-03-01T06:25:57;95387.19;;;3.25;84.77
68179;BME280;54998;42.656;23.382;2023-03-01T06:28:23;95387.38;;;3.22;85.12
68179;BME280;54998;42.656;23.382;2023-03-01T06:30:50;95380.31;;;3.27;85.18
68179;BME280;54998;42.656;23.382;2023-03-01T06:33:15;95380.25;;;3.28;84.80
68179;BME280;54998;42.656;23.382;2023-03-01T06:35:40;95386.13;;;3.29;84.85
68179;BME280;54998;42.656;23.382;2023-03-01T06:38:06;95389.00;;;3.23;84.77
68179;BME280;54998;42.656;23.382;2023-03-01T06:40:32;95387.38;;;3.22;84.68
68179;BME280;54998;42.656;23.382;2023-03-01T06:43:00;95399.56;;;3.31;84.20
68179;BME280;54998;42.656;23.382;2023-03-01T06:45:26;95398.66;;;3.32;83.84
68179;BME280;54998;42.656;23.382;2023-03-01T06:47:51;95389.59;;;3.28;84.57
68179;BME280;54998;42.656;23.382;2023-03-01T06:50:17;95390.16;;;3.33;83.80
68179;BME280;54998;42.656;23.382;2023-03-01T06:52:43;95383.28;;;3.35;83.70
68179;BME280;54998;42.656;23.382;2023-03-01T06:55:11;95393.25;;;3.38;83.42
68179;BME280;54998;42.656;23.382;2023-03-01T06:57:36;95387.53;;;3.35;83.16
68179;BME280;54998;42.656;23.382;2023-03-01T07:00:04;95395.16;;;3.35;83.32
68179;BME280;54998;42.656;23.382;2023-03-01T07:02:30;95395.88;;;3.37;83.52
68179;BME280;54998;42.656;23.382;2023-03-01T07:04:55;95389.00;;;3.39;83.44
68179;BME280;54998;42.656;23.382;2023-03-01T07:07:21;95393.25;;;3.38;83.45
68179;BME280;54998;42.656;23.382;2023-03-01T07:09:46;95380.81;;;3.34;83.47
68179;BME280;54998;42.656;23.382;2023-03-01T07:12:13;95396.13;;;3.32;83.31
68179;BME280;54998;42.656;23.382;2023-03-01T07:14:38;95390.00;;;3.36;83.73
68179;BME280;54998;42.656;23.382;2023-03-01T07:17:04;95389.34;;;3.33;83.64
68179;BME280;54998;42.656;23.382;2023-03-01T07:19:29;95390.38;;;3.44;83.44
68179;BME280;54998;42.656;23.382;2023-03-01T07:21:54;95383.25;;;3.51;83.09
68179;BME280;54998;42.656;23.382;2023-03-01T07:24:21;95381.53;;;3.52;82.59
68179;BME280;54998;42.656;23.382;2023-03-01T07:26:50;95390.72;;;3.54;82.48
68179;BME280;54998;42.656;23.382;2023-03-01T07:29:16;95382.66;;;3.62;82.95
68179;BME280;54998;42.656;23.382;2023-03-01T07:31:41;95380.00;;;3.79;81.72
68179;BME280;54998;42.656;23.382;2023-03-01T07:34:10;95385.06;;;3.79;80.93
68179;BME280;54998;42.656;23.382;2023-03-01T07:36:36;95377.56;;;3.78;80.60
68179;BME280;54998;42.656;23.382;2023-03-01T07:39:02;95372.09;;;3.69;80.52
68179;BME280;54998;42.656;23.382;2023-03-01T07:41:28;95379.50;;;3.88;80.71
68179;BME280;54998;42.656;23.382;2023-03-01T07:43:54;95380.47;;;3.86;79.96
68179;BME280;54998;42.656;23.382;2023-03-01T07:46:20;95374.97;;;3.94;80.03
68179;BME280;54998;42.656;23.382;2023-03-01T07:48:47;95385.84;;;3.96;79.55
68179;BME280;54998;42.656;23.382;2023-03-01T07:51:12;95376.44;;;3.98;78.74
68179;BME280;54998;42.656;23.382;2023-03-01T07:53:38;95369.66;;;4.13;78.52
68179;BME280;54998;42.656;23.382;2023-03-01T07:56:12;95358.41;;;4.31;77.82
68179;BME280;54998;42.656;23.382;2023-03-01T07:58:40;95354.91;;;4.48;77.24
68179;BME280;54998;42.656;23.382;2023-03-01T08:01:11;95354.34;;;4.71;76.42
68179;BME280;54998;42.656;23.382;2023-03-01T08:03:37;95368.06;;;4.69;75.56
68179;BME280;54998;42.656;23.382;2023-03-01T08:06:04;95351.81;;;4.57;76.15
68179;BME280;54998;42.656;23.382;2023-03-01T08:09:14;95348.25;;;4.74;76.10
68179;BME280;54998;42.656;23.382;2023-03-01T08:11:40;95352.44;;;4.61;75.87
68179;BME280;54998;42.656;23.382;2023-03-01T08:14:06;95364.88;;;4.37;76.26
68179;BME280;54998;42.656;23.382;2023-03-01T08:16:31;95360.22;;;4.29;76.51
68179;BME280;54998;42.656;23.382;2023-03-01T08:19:06;95359.22;;;4.31;76.73
68179;BME280;54998;42.656;23.382;2023-03-01T08:21:32;95355.44;;;4.39;76.62
68179;BME280;54998;42.656;23.382;2023-03-01T08:23:59;95357.50;;;4.46;76.71
68179;BME280;54998;42.656;23.382;2023-03-01T08:26:25;95354.34;;;4.57;75.62
68179;BME280;54998;42.656;23.382;2023-03-01T08:28:50;95344.38;;;4.68;74.15
68179;BME280;54998;42.656;23.382;2023-03-01T08:31:22;95361.59;;;4.63;74.02
68179;BME280;54998;42.656;23.382;2023-03-01T08:33:50;95355.25;;;4.56;74.75
68179;BME280;54998;42.656;23.382;2023-03-01T08:36:21;95335.28;;;4.64;74.57
68179;BME280;54998;42.656;23.382;2023-03-01T08:38:46;95346.44;;;4.90;73.89
68179;BME280;54998;42.656;23.382;2023-03-01T08:41:11;95339.31;;;4.96;72.55
68179;BME280;54998;42.656;23.382;2023-03-01T08:43:37;95343.16;;;4.88;72.14
68179;BME280;54998;42.656;23.382;2023-03-01T08:54:36;95356.97;;;4.70;72.77
68179;BME280;54998;42.656;23.382;2023-03-01T08:57:02;95358.97;;;4.50;73.45
68179;BME280;54998;42.656;23.382;2023-03-01T08:59:28;95361.88;;;4.73;72.88
68179;BME280;54998;42.656;23.382;2023-03-01T09:01:55;95369.06;;;4.66;72.51
68179;BME280;54998;42.656;23.382;2023-03-01T09:04:21;95354.44;;;4.70;72.38
68179;BME280;54998;42.656;23.382;2023-03-01T09:06:46;95353.94;;;4.92;71.89
68179;BME280;54998;42.656;23.382;2023-03-01T09:09:15;95361.44;;;4.66;72.12
68179;BME280;54998;42.656;23.382;2023-03-01T09:11:41;95347.34;;;4.75;72.59
68179;BME280;54998;42.656;23.382;2023-03-01T09:14:07;95362.16;;;4.68;72.77
68179;BME280;54998;42.656;23.382;2023-03-01T09:16:32;95351.69;;;4.87;72.37
68179;BME280;54998;42.656;23.382;2023-03-01T09:19:02;95353.13;;;4.91;72.52
68179;BME280;54998;42.656;23.382;2023-03-01T09:21:27;95368.88;;;4.84;72.14
68179;BME280;54998;42.656;23.382;2023-03-01T09:23:53;95341.06;;;4.95;72.61
68179;BME280;54998;42.656;23.382;2023-03-01T09:26:21;95339.09;;;5.13;71.60
68179;BME280;54998;42.656;23.382;2023-03-01T09:28:50;95351.16;;;4.82;72.26
68179;BME280;54998;42.656;23.382;2023-03-01T09:31:17;95343.97;;;4.89;71.89
68179;BME280;54998;42.656;23.382;2023-03-01T09:33:45;95354.72;;;4.80;72.59
68179;BME280;54998;42.656;23.382;2023-03-01T09:36:14;95347.81;;;4.67;73.13
68179;BME280;54998;42.656;23.382;2023-03-01T09:38:40;95355.34;;;4.69;73.29
68179;BME280;54998;42.656;23.382;2023-03-01T09:41:14;95347.59;;;4.85;73.39
68179;BME280;54998;42.656;23.382;2023-03-01T09:43:55;95335.16;;;4.80;73.29
68179;BME280;54998;42.656;23.382;2023-03-01T09:46:25;95320.72;;;4.81;73.22
68179;BME280;54998;42.656;23.382;2023-03-01T09:51:30;95331.13;;;5.05;72.34
68179;BME280;54998;42.656;23.382;2023-03-01T09:53:57;95325.44;;;5.01;72.24
68179;BME280;54998;42.656;23.382;2023-03-01T10:09:41;95319.25;;;5.05;72.34
68179;BME280;54998;42.656;23.382;2023-03-01T10:12:11;95319.13;;;5.07;72.65
68179;BME280;54998;42.656;23.382;2023-03-01T10:15:30;95330.31;;;5.04;71.98
68179;BME280;54998;42.656;23.382;2023-03-01T10:19:55;95306.66;;;5.17;72.12
68179;BME280;54998;42.656;23.382;2023-03-01T10:22:24;95313.28;;;5.19;71.18
68179;BME280;54998;42.656;23.382;2023-03-01T10:24:54;95303.66;;;5.37;71.72
68179;BME280;54998;42.656;23.382;2023-03-01T10:32:36;95299.06;;;5.02;71.77
68179;BME280;54998;42.656;23.382;2023-03-01T10:35:16;95284.31;;;5.07;71.48
68179;BME280;54998;42.656;23.382;2023-03-01T10:37:57;95296.22;;;5.07;71.65
68179;BME280;54998;42.656;23.382;2023-03-01T10:40:23;95291.47;;;5.15;71.23
68179;BME280;54998;42.656;23.382;2023-03-01T10:42:49;95288.78;;;5.31;70.61
68179;BME280;54998;42.656;23.382;2023-03-01T10:47:46;95282.69;;;5.46;69.79
68179;BME280;54998;42.656;23.382;2023-03-01T10:50:22;95272.28;;;5.89;69.25
68179;BME280;54998;42.656;23.382;2023-03-01T10:53:00;95267.59;;;5.70;68.93
68179;BME280;54998;42.656;23.382;2023-03-01T10:55:37;95269.53;;;5.80;68.67
68179;BME280;54998;42.656;23.382;2023-03-01T11:00:46;95279.97;;;6.15;67.57
68179;BME280;54998;42.656;23.382;2023-03-01T11:03:15;95270.47;;;6.04;68.53
68179;BME280;54998;42.656;23.382;2023-03-01T11:05:56;95274.75;;;6.42;66.82
68179;BME280;54998;42.656;23.382;2023-03-01T11:08:38;95277.84;;;6.71;66.16
68179;BME280;54998;42.656;23.382;2023-03-01T11:11:34;95277.81;;;6.22;66.86
68179;BME280;54998;42.656;23.382;2023-03-01T11:14:16;95269.25;;;5.97;68.24
68179;BME280;54998;42.656;23.382;2023-03-01T11:16:45;95279.38;;;5.99;67.95
68179;BME280;54998;42.656;23.382;2023-03-01T11:22:01;95258.84;;;6.13;66.96
68179;BME280;54998;42.656;23.382;2023-03-01T11:24:48;95266.41;;;6.14;67.59
68179;BME280;54998;42.656;23.382;2023-03-01T11:27:33;95274.06;;;6.02;68.06
68179;BME280;54998;42.656;23.382;2023-03-01T11:30:05;95274.50;;;5.94;68.74
68179;BME280;54998;42.656;23.382;2023-03-01T11:32:36;95269.13;;;5.73;69.09
68179;BME280;54998;42.656;23.382;2023-03-01T11:35:17;95267.41;;;5.86;69.31
68179;BME280;54998;42.656;23.382;2023-03-01T11:37:56;95267.94;;;6.17;68.51
68179;BME280;54998;42.656;23.382;2023-03-01T11:40:27;95261.72;;;6.08;68.29
68179;BME280;54998;42.656;23.382;2023-03-01T11:43:19;95257.03;;;6.02;69.18
68179;BME280;54998;42.656;23.382;2023-03-01T11:50:48;95250.31;;;6.27;67.94
68179;BME280;54998;42.656;23.382;2023-03-01T11:54:15;95238.38;;;6.14;68.19
68179;BME280;54998;42.656;23.382;2023-03-01T11:58:49;95236.06;;;5.99;68.34
68179;BME280;54998;42.656;23.382;2023-03-01T12:06:59;95236.56;;;6.53;67.62
68179;BME280;54998;42.656;23.382;2023-03-01T12:20:30;95222.16;;;7.13;64.55
68179;BME280;54998;42.656;23.382;2023-03-01T12:40:36;95207.19;;;6.85;66.02
68179;BME280;54998;42.656;23.382;2023-03-01T12:51:31;95204.22;;;6.54;66.66
68179;BME280;54998;42.656;23.382;2023-03-01T12:54:05;95203.88;;;6.34;66.82
68179;BME280;54998;42.656;23.382;2023-03-01T12:56:34;95207.41;;;6.57;66.76
68179;BME280;54998;42.656;23.382;2023-03-01T12:59:18;95197.44;;;6.42;67.01
68179;BME280;54998;42.656;23.382;2023-03-01T13:02:16;95202.63;;;6.53;66.78
68179;BME280;54998;42.656;23.382;2023-03-01T13:05:33;95200.16;;;6.51;67.01
68179;BME280;54998;42.656;23.382;2023-03-01T13:11:02;95193.63;;;6.60;66.94
68179;BME280;54998;42.656;23.382;2023-03-01T13:13:29;95202.00;;;6.49;67.58
68179;BME280;54998;42.656;23.382;2023-03-01T13:15:55;95212.22;;;6.49;67.87
68179;BME280;54998;42.656;23.382;2023-03-01T13:20:55;95210.78;;;6.45;67.46
68179;BME280;54998;42.656;23.382;2023-03-01T13:28:39;95216.94;;;6.91;65.76
68179;BME280;54998;42.656;23.382;2023-03-01T13:31:09;95211.84;;;6.67;65.85
68179;BME280;54998;42.656;23.382;2023-03-01T13:44:21;95202.06;;;6.61;66.61
68179;BME280;54998;42.656;23.382;2023-03-01T13:46:50;95200.16;;;6.51;67.53
68179;BME280;54998;42.656;23.382;2023-03-01T13:49:21;95198.81;;;6.58;67.23
68179;BME280;54998;42.656;23.382;2023-03-01T13:51:48;95202.16;;;6.59;67.72
68179;BME280;54998;42.656;23.382;2023-03-01T13:54:16;95203.81;;;6.60;67.61
68179;BME280;54998;42.656;23.382;2023-03-01T13:56:46;95199.09;;;6.30;68.44
68179;BME280;54998;42.656;23.382;2023-03-01T13:59:17;95203.03;;;6.47;68.15
68179;BME280;54998;42.656;23.382;2023-03-01T14:01:43;95199.31;;;6.27;68.95
68179;BME280;54998;42.656;23.382;2023-03-01T14:04:23;95192.69;;;6.11;69.80
68179;BME280;54998;42.656;23.382;2023-03-01T14:06:50;95200.25;;;5.87;70.16
68179;BME280;54998;42.656;23.382;2023-03-01T14:09:20;95205.47;;;5.99;70.59
68179;BME280;54998;42.656;23.382;2023-03-01T14:14:40;95195.53;;;6.32;69.41
68179;BME280;54998;42.656;23.382;2023-03-01T14:17:38;95196.06;;;6.25;69.20
68179;BME280;54998;42.656;23.382;2023-03-01T14:20:14;95196.88;;;6.25;69.47
68179;BME280;54998;42.656;23.382;2023-03-01T14:22:41;95203.50;;;6.15;69.92
68179;BME280;54998;42.656;23.382;2023-03-01T14:25:35;95189.88;;;6.03;70.72
68179;BME280;54998;42.656;23.382;2023-03-01T14:30:41;95197.41;;;5.53;73.61
68179;BME280;54998;42.656;23.382;2023-03-01T14:33:22;95194.72;;;5.55;74.31
68179;BME280;54998;42.656;23.382;2023-03-01T14:36:01;95195.16;;;5.74;73.72
68179;BME280;54998;42.656;23.382;2023-03-01T14:38:39;95199.34;;;5.63;73.55
68179;BME280;54998;42.656;23.382;2023-03-01T14:41:10;95189.66;;;5.55;73.66
68179;BME280;54998;42.656;23.382;2023-03-01T14:43:43;95195.97;;;5.37;74.35
68179;BME280;54998;42.656;23.382;2023-03-01T14:48:44;95193.03;;;5.55;73.84
68179;BME280;54998;42.656;23.382;2023-03-01T14:51:10;95182.72;;;5.44;74.12
68179;BME280;54998;42.656;23.382;2023-03-01T14:53:36;95182.53;;;5.47;74.45
68179;BME280;54998;42.656;23.382;2023-03-01T14:56:02;95181.50;;;5.50;74.41
68179;BME280;54998;42.656;23.382;2023-03-01T14:58:28;95191.06;;;5.59;74.42
68179;BME280;54998;42.656;23.382;2023-03-01T15:01:00;95183.75;;;5.54;73.98
68179;BME280;54998;42.656;23.382;2023-03-01T15:03:38;95187.63;;;5.60;73.61
68179;BME280;54998;42.656;23.382;2023-03-01T15:06:06;95187.00;;;5.44;73.91
68179;BME280;54998;42.656;23.382;2023-03-01T15:08:33;95179.19;;;5.47;74.21
68179;BME280;54998;42.656;23.382;2023-03-01T15:11:19;95181.59;;;5.48;73.99
68179;BME280;54998;42.656;23.382;2023-03-01T15:13:48;95173.25;;;5.46;74.85
68179;BME280;54998;42.656;23.382;2023-03-01T15:16:15;95162.78;;;5.38;75.24
68179;BME280;54998;42.656;23.382;2023-03-01T15:18:48;95172.13;;;5.50;74.96
68179;BME280;54998;42.656;23.382;2023-03-01T15:21:25;95180.47;;;5.52;74.06
68179;BME280;54998;42.656;23.382;2023-03-01T15:23:55;95172.53;;;5.57;73.04
68179;BME280;54998;42.656;23.382;2023-03-01T15:26:28;95181.50;;;5.63;72.91
68179;BME280;54998;42.656;23.382;2023-03-01T15:28:57;95172.44;;;5.59;73.21
68179;BME280;54998;42.656;23.382;2023-03-01T15:31:36;95175.00;;;5.59;73.20
68179;BME280;54998;42.656;23.382;2023-03-01T15:34:38;95180.72;;;5.62;72.72
68179;BME280;54998;42.656;23.382;2023-03-01T15:40:19;95178.66;;;5.42;73.41